Songkhla, Thailand
Current Conditions -  °F | °C
As of 2:30 AM on Sunday 26 Oct 2014 (Local Time) from VTSS Reporting Station
Broken Clouds Broken Clouds  
Wind Chill: 77°   Ceiling: 30000
Heat Index: 78°   Visibility: 6mi
Dew Point: 75°   Wind: 2mph
Humidity: 94%   Direction: 270°W
Pressure: 29.85"   Gusts: NA
Location:  7.21°N, 100.56°E
Report Text: VTSS 251930Z 27002KT 9999 FEW020 SCT120 BKN300 25/24 Q1011 A2985 NOSIG
Loading
Personal Weather Stations






























Interactive Weather Map
Tropical Storm Tracking
New forecast layout! Learn more

10-Day Weather Forecast

Advertisements
Track Severe Weather on mobile